Time;durP1;ratioP1;P1;durP2;ratioP2;P2;SDS_P1;SDS_P2;PMS_P1;PMS_P2;Temp;Humidity;BMP_temperature;BMP_pressure;BME280_temperature;BME280_humidity;BME280_pressure;Samples;Min_cycle;Max_cycle;Signal;HPM_P1;HPM_P2
2021/11/22 00:00:29;;;;;;;17.88;10.25;;;6.50;90.90;;;;;;5027063;28;20112;-83
2021/11/22 00:02:59;;;;;;;19.48;11.32;;;6.50;91.00;;;;;;5027064;28;20464;-82
2021/11/22 00:05:25;;;;;;;17.33;10.30;;;6.50;90.90;;;;;;5027127;28;20120;-80
2021/11/22 00:07:51;;;;;;;19.27;10.40;;;6.50;91.00;;;;;;5026359;28;20030;-80
2021/11/22 00:10:17;;;;;;;19.45;11.07;;;6.50;91.00;;;;;;5027050;28;20428;-82
2021/11/22 00:12:44;;;;;;;17.35;10.20;;;6.50;91.10;;;;;;5026670;28;20032;-82
2021/11/22 00:15:12;;;;;;;15.40;9.93;;;6.50;91.00;;;;;;5026790;28;20392;-80
2021/11/22 00:17:39;;;;;;;14.98;9.93;;;6.50;91.00;;;;;;5011779;28;20053;-81
2021/11/22 00:20:08;;;;;;;17.10;9.88;;;6.50;90.90;;;;;;5011944;28;20022;-82
2021/11/22 00:22:34;;;;;;;14.65;9.00;;;6.50;90.70;;;;;;5011423;28;20026;-81
2021/11/22 00:25:01;;;;;;;13.93;8.70;;;6.50;90.70;;;;;;5011788;28;20040;-81
2021/11/22 00:27:27;;;;;;;14.10;8.73;;;6.50;90.70;;;;;;5027861;28;20164;-81
2021/11/22 00:29:53;;;;;;;14.98;8.68;;;6.50;90.60;;;;;;5028621;28;20116;-80
2021/11/22 00:32:18;;;;;;;15.57;9.23;;;6.50;90.60;;;;;;5028265;28;20457;-82
2021/11/22 00:34:44;;;;;;;13.75;7.93;;;6.50;90.60;;;;;;5011833;28;20790;-82
2021/11/22 00:37:21;;;;;;;11.93;7.55;;;6.50;90.50;;;;;;5010257;28;20022;-81
2021/11/22 00:39:47;;;;;;;11.30;7.63;;;6.50;90.50;;;;;;5011607;28;20026;-81
2021/11/22 00:42:15;;;;;;;13.07;8.05;;;6.50;90.50;;;;;;5010489;28;20065;-81
2021/11/22 00:44:42;;;;;;;13.82;8.43;;;6.40;90.40;;;;;;5026812;28;20115;-82
2021/11/22 00:47:10;;;;;;;14.00;8.98;;;6.50;90.40;;;;;;5009959;28;20120;-82
2021/11/22 00:49:38;;;;;;;14.77;9.75;;;6.40;90.40;;;;;;5026910;28;20037;-81
2021/11/22 00:52:05;;;;;;;14.20;9.60;;;6.40;90.30;;;;;;5010024;28;20120;-82
2021/11/22 00:54:33;;;;;;;14.98;9.57;;;6.40;90.40;;;;;;5011508;28;20040;-83
2021/11/22 00:56:59;;;;;;;14.70;9.70;;;6.40;90.40;;;;;;5011899;28;20529;-81
2021/11/22 00:59:25;;;;;;;16.63;9.32;;;6.30;90.50;;;;;;5010171;28;20121;-81
2021/11/22 01:01:51;;;;;;;15.68;9.43;;;6.30;90.50;;;;;;5010870;28;20040;-81
2021/11/22 01:04:18;;;;;;;14.43;9.18;;;6.30;90.50;;;;;;5011223;28;20495;-81
2021/11/22 01:06:44;;;;;;;14.65;9.02;;;6.30;90.50;;;;;;5011367;28;20044;-81
2021/11/22 01:09:10;;;;;;;16.30;10.73;;;6.30;90.40;;;;;;5010237;28;20049;-81
2021/11/22 01:11:36;;;;;;;15.32;9.55;;;6.40;90.40;;;;;;5011384;28;20061;-82
2021/11/22 01:14:03;;;;;;;14.75;9.52;;;6.40;90.30;;;;;;5013326;28;20026;-83
2021/11/22 01:16:30;;;;;;;17.20;9.73;;;6.40;90.20;;;;;;5030180;28;20132;-81
2021/11/22 01:18:56;;;;;;;16.67;9.80;;;6.30;90.10;;;;;;5013432;28;20440;-81
2021/11/22 01:21:23;;;;;;;14.80;8.48;;;6.30;90.00;;;;;;5013169;28;20117;-80
2021/11/22 01:23:48;;;;;;;12.25;8.27;;;6.30;90.00;;;;;;5015687;28;20121;-80
2021/11/22 01:26:14;;;;;;;13.82;8.57;;;6.30;90.00;;;;;;5016385;28;20124;-82
2021/11/22 01:28:42;;;;;;;11.70;7.72;;;6.20;90.00;;;;;;5032327;28;20026;-80
2021/11/22 01:31:08;;;;;;;14.43;8.02;;;6.20;90.00;;;;;;5017305;28;20034;-80
2021/11/22 01:33:33;;;;;;;11.63;7.93;;;6.20;90.10;;;;;;5015531;28;20088;-81
2021/11/22 01:35:59;;;;;;;13.35;7.85;;;6.10;90.10;;;;;;5031482;28;20037;-80
2021/11/22 01:38:25;;;;;;;11.82;7.97;;;6.10;90.10;;;;;;5016577;28;20029;-80
2021/11/22 01:40:51;;;;;;;12.20;7.88;;;6.10;90.20;;;;;;5032088;28;20029;-80
2021/11/22 01:43:17;;;;;;;10.13;6.82;;;6.00;90.30;;;;;;5017030;28;20037;-81
2021/11/22 01:45:47;;;;;;;13.45;8.30;;;6.00;90.30;;;;;;5016659;28;20100;-80
2021/11/22 01:48:15;;;;;;;13.50;8.63;;;6.00;90.50;;;;;;5016654;28;20037;-81
2021/11/22 01:50:42;;;;;;;12.82;8.40;;;6.00;90.80;;;;;;5031742;28;20026;-82
2021/11/22 01:53:08;;;;;;;13.38;8.45;;;6.00;90.80;;;;;;5015352;28;20034;-82
2021/11/22 01:55:36;;;;;;;14.32;8.60;;;6.00;90.90;;;;;;5031536;28;20038;-82
2021/11/22 01:58:03;;;;;;;13.73;7.90;;;6.00;90.90;;;;;;5016585;28;20461;-82
2021/11/22 02:00:47;;;;;;;13.10;7.55;;;6.00;91.00;;;;;;5015239;28;20022;-83
2021/11/22 02:03:15;;;;;;;14.15;8.52;;;6.10;91.10;;;;;;5015423;28;20507;-83
2021/11/22 02:05:41;;;;;;;15.35;9.77;;;6.10;91.30;;;;;;5031976;28;20030;-82
2021/11/22 02:08:08;;;;;;;16.67;9.80;;;6.20;91.40;;;;;;5031815;28;20045;-81
2021/11/22 02:10:35;;;;;;;18.15;10.30;;;6.30;91.30;;;;;;5032011;28;20033;-81
2021/11/22 02:13:02;;;;;;;13.50;9.30;;;6.40;91.50;;;;;;5016821;28;20104;-81
2021/11/22 02:15:28;;;;;;;16.38;10.13;;;6.40;91.10;;;;;;5032994;28;20038;-81
2021/11/22 02:17:55;;;;;;;14.98;9.45;;;6.50;91.00;;;;;;5032997;28;20026;-80
2021/11/22 02:20:26;;;;;;;15.27;9.15;;;6.60;90.90;;;;;;5016087;28;20052;-81
2021/11/22 02:22:56;;;;;;;13.70;8.95;;;6.70;90.70;;;;;;5015894;28;20037;-81
2021/11/22 02:25:24;;;;;;;13.95;8.73;;;6.70;90.60;;;;;;5015348;28;20108;-81
2021/11/22 02:27:50;;;;;;;12.48;8.00;;;6.80;90.80;;;;;;5031007;28;20068;-81
2021/11/22 02:30:20;;;;;;;12.27;7.40;;;6.80;90.40;;;;;;5031136;28;20030;-80
2021/11/22 02:32:46;;;;;;;11.98;7.80;;;6.90;90.30;;;;;;5031328;28;20472;-80
2021/11/22 02:35:18;;;;;;;12.40;7.78;;;6.90;90.10;;;;;;5015605;28;20065;-81
2021/11/22 02:37:45;;;;;;;11.30;7.25;;;7.00;90.10;;;;;;5030895;28;20026;-81
2021/11/22 02:40:11;;;;;;;9.55;6.90;;;6.90;90.10;;;;;;5030993;28;20026;-81
2021/11/22 02:42:41;;;;;;;11.93;7.60;;;7.00;90.00;;;;;;5015595;28;20037;-81
2021/11/22 02:45:19;;;;;;;13.30;7.97;;;7.00;89.80;;;;;;5031308;28;20396;-80
2021/11/22 02:47:47;;;;;;;12.90;7.80;;;7.00;89.80;;;;;;5030814;28;20026;-81
2021/11/22 02:50:16;;;;;;;12.00;7.10;;;7.00;89.60;;;;;;5015748;28;20037;-81
2021/11/22 02:52:43;;;;;;;9.63;6.47;;;7.00;89.70;;;;;;5013915;28;20053;-82
2021/11/22 02:55:11;;;;;;;10.68;6.20;;;7.00;89.70;;;;;;5030858;28;20034;-81
2021/11/22 02:57:38;;;;;;;9.85;6.78;;;7.00;89.70;;;;;;5014072;28;20025;-80
2021/11/22 03:00:09;;;;;;;10.98;6.50;;;6.90;89.60;;;;;;5015271;28;20419;-81
2021/11/22 03:02:37;;;;;;;8.75;5.53;;;6.90;89.50;;;;;;5014352;28;20061;-81
2021/11/22 03:05:05;;;;;;;9.25;5.93;;;6.90;89.80;;;;;;5030442;28;20120;-80
2021/11/22 03:07:32;;;;;;;12.02;6.88;;;6.90;89.80;;;;;;5017369;28;20034;-81
2021/11/22 03:09:57;;;;;;;12.35;7.38;;;6.80;89.70;;;;;;5045625;28;20018;-81
2021/11/22 03:12:24;;;;;;;10.77;7.38;;;6.70;89.30;;;;;;5017153;28;20045;-82
2021/11/22 03:14:51;;;;;;;13.88;8.27;;;6.60;89.30;;;;;;5039852;28;20057;-81
2021/11/22 03:17:18;;;;;;;17.02;8.95;;;6.50;89.50;;;;;;5040564;28;20017;-81
2021/11/22 03:19:46;;;;;;;16.10;10.00;;;6.50;89.70;;;;;;5072088;28;20025;-82
2021/11/22 03:22:12;;;;;;;15.10;9.20;;;6.40;90.00;;;;;;5038932;28;20037;-82
2021/11/22 03:24:38;;;;;;;14.25;8.80;;;6.30;90.10;;;;;;5038255;28;20022;-81
2021/11/22 03:27:04;;;;;;;14.68;9.15;;;6.30;90.10;;;;;;5053746;28;20093;-79
2021/11/22 03:29:30;;;;;;;14.43;9.10;;;6.20;90.10;;;;;;5035894;28;20040;-81
2021/11/22 03:31:57;;;;;;;17.02;9.88;;;6.20;90.00;;;;;;5069936;28;20373;-81
2021/11/22 03:34:23;;;;;;;14.85;9.70;;;6.10;89.90;;;;;;5054354;28;20389;-81
2021/11/22 03:36:51;;;;;;;15.20;9.75;;;6.00;89.90;;;;;;5014928;28;20045;-80
2021/11/22 03:39:22;;;;;;;14.65;9.10;;;5.90;90.20;;;;;;5013821;28;20375;-81
2021/11/22 03:41:49;;;;;;;15.63;9.27;;;5.80;90.30;;;;;;5015203;28;20026;-80
2021/11/22 03:44:15;;;;;;;16.55;9.65;;;5.70;90.50;;;;;;5014946;28;20042;-81
2021/11/22 03:46:47;;;;;;;16.70;9.90;;;5.60;91.00;;;;;;5046714;28;20551;-81
2021/11/22 03:49:15;;;;;;;14.88;9.32;;;5.60;91.30;;;;;;5046566;28;20061;-80
2021/11/22 03:51:41;;;;;;;16.42;9.85;;;5.50;91.50;;;;;;5046595;28;20057;-81
2021/11/22 03:54:08;;;;;;;14.75;9.20;;;5.50;91.80;;;;;;5046518;28;20041;-80
2021/11/22 03:56:34;;;;;;;15.07;9.30;;;5.50;91.90;;;;;;5046090;28;20040;-81
2021/11/22 03:59:00;;;;;;;18.40;10.23;;;5.50;91.90;;;;;;5014481;28;20026;-80
2021/11/22 04:01:26;;;;;;;18.23;10.80;;;5.50;92.10;;;;;;5014234;28;20358;-81
2021/11/22 04:03:52;;;;;;;16.75;10.38;;;5.50;92.10;;;;;;5046108;28;20029;-81
2021/11/22 04:06:30;;;;;;;18.27;10.68;;;5.40;92.30;;;;;;5046239;28;20030;-81
2021/11/22 04:08:59;;;;;;;16.77;9.82;;;5.40;92.30;;;;;;5014472;28;20412;-81
2021/11/22 04:11:24;;;;;;;17.63;10.63;;;5.40;92.60;;;;;;5014381;28;20064;-82
2021/11/22 04:13:52;;;;;;;18.52;10.80;;;5.40;92.40;;;;;;5014857;28;20030;-83
2021/11/22 04:16:19;;;;;;;14.82;9.00;;;5.30;92.20;;;;;;5014307;28;20034;-79
2021/11/22 04:18:46;;;;;;;16.13;9.88;;;5.30;92.40;;;;;;5014273;28;20092;-81
2021/11/22 04:21:13;;;;;;;17.48;10.68;;;5.10;92.10;;;;;;5012945;28;20034;-80
2021/11/22 04:23:40;;;;;;;16.27;9.80;;;5.10;92.20;;;;;;5014110;28;20475;-81
2021/11/22 04:26:09;;;;;;;16.85;9.75;;;5.00;92.40;;;;;;5013926;28;20072;-80
2021/11/22 04:28:36;;;;;;;20.75;11.60;;;4.90;92.50;;;;;;5013702;28;20041;-81
2021/11/22 04:31:01;;;;;;;20.95;10.90;;;4.80;92.70;;;;;;5013832;28;20037;-82
2021/11/22 04:33:27;;;;;;;19.42;10.50;;;4.80;93.20;;;;;;5012892;28;20376;-80
2021/11/22 04:35:53;;;;;;;18.08;9.95;;;4.70;93.40;;;;;;5013508;28;20611;-80
2021/11/22 04:38:19;;;;;;;18.17;10.23;;;4.70;93.70;;;;;;5045455;28;20515;-80
2021/11/22 04:40:44;;;;;;;21.60;10.73;;;4.60;94.00;;;;;;5014293;28;20018;-80
2021/11/22 04:43:10;;;;;;;16.13;9.90;;;4.60;94.00;;;;;;5012187;28;20034;-81
2021/11/22 04:45:36;;;;;;;16.00;9.65;;;4.60;94.20;;;;;;5046341;28;20061;-80
2021/11/22 04:48:05;;;;;;;17.80;9.52;;;4.60;94.70;;;;;;5048501;28;20380;-81
2021/11/22 04:50:31;;;;;;;18.70;11.23;;;4.50;94.80;;;;;;5017771;28;20030;-80
2021/11/22 04:52:59;;;;;;;22.05;12.38;;;4.50;94.90;;;;;;5017821;28;20069;-80
2021/11/22 04:55:25;;;;;;;21.05;12.07;;;4.50;95.40;;;;;;5049641;28;20038;-80
2021/11/22 04:57:52;;;;;;;18.20;11.40;;;4.50;95.40;;;;;;5049488;28;20029;-80
2021/11/22 05:00:20;;;;;;;17.80;10.20;;;4.50;95.00;;;;;;5017450;28;20037;-81
2021/11/22 05:02:46;;;;;;;17.42;10.50;;;4.40;95.00;;;;;;5049010;28;20432;-81
2021/11/22 05:05:13;;;;;;;17.40;10.43;;;4.40;95.20;;;;;;5049692;28;20081;-83
2021/11/22 05:07:40;;;;;;;17.15;10.60;;;4.30;95.10;;;;;;5050029;28;20096;-82
2021/11/22 05:10:07;;;;;;;19.77;12.15;;;4.30;95.60;;;;;;5049469;28;20029;-82
2021/11/22 05:12:33;;;;;;;21.95;12.43;;;4.30;96.20;;;;;;5017165;28;20117;-81
2021/11/22 05:14:59;;;;;;;22.13;12.68;;;4.20;96.60;;;;;;5015645;28;20069;-81
2021/11/22 05:17:41;;;;;;;20.33;12.40;;;4.10;96.50;;;;;;5048580;28;20376;-81
2021/11/22 05:20:08;;;;;;;19.90;11.77;;;4.10;96.10;;;;;;5016945;28;20587;-82
2021/11/22 05:22:34;;;;;;;19.52;11.73;;;4.00;96.80;;;;;;5048953;28;20026;-81
2021/11/22 05:25:01;;;;;;;19.73;11.80;;;3.90;96.80;;;;;;5016023;28;20468;-81
2021/11/22 05:27:30;;;;;;;19.25;11.65;;;3.80;96.60;;;;;;5017286;28;20112;-82
2021/11/22 05:29:57;;;;;;;21.15;12.43;;;3.80;96.80;;;;;;5015687;28;20064;-82
2021/11/22 05:32:23;;;;;;;19.73;12.00;;;3.70;96.90;;;;;;5048697;28;20033;-81
2021/11/22 05:34:55;;;;;;;25.35;14.23;;;3.60;97.20;;;;;;4999241;28;20057;-80
2021/11/22 05:37:21;;;;;;;24.85;14.15;;;3.60;98.30;;;;;;5048179;28;20076;-83
2021/11/22 05:39:47;;;;;;;26.23;14.65;;;3.50;98.40;;;;;;5051567;28;20071;-81
2021/11/22 05:42:15;;;;;;;27.23;16.23;;;3.50;98.50;;;;;;5035838;28;20541;-82
2021/11/22 05:44:41;;;;;;;24.17;14.30;;;3.50;98.70;;;;;;5037209;28;20045;-82
2021/11/22 05:47:09;;;;;;;27.88;15.75;;;3.40;98.90;;;;;;5039442;28;20472;-82
2021/11/22 05:49:36;;;;;;;26.38;15.63;;;3.40;99.70;;;;;;5045794;28;20490;-83
2021/11/22 05:52:05;;;;;;;25.58;14.90;;;3.40;99.90;;;;;;5034871;28;20120;-82
2021/11/22 05:54:32;;;;;;;23.83;13.82;;;3.40;99.80;;;;;;5035992;28;20037;-82
2021/11/22 05:56:59;;;;;;;22.58;12.63;;;3.40;99.90;;;;;;5035581;28;20044;-83
2021/11/22 05:59:26;;;;;;;20.48;12.77;;;3.40;99.90;;;;;;5032682;28;20472;-84
2021/11/22 06:01:55;;;;;;;24.17;14.25;;;3.40;99.90;;;;;;5033191;28;20035;-86
2021/11/22 06:04:21;;;;;;;25.55;14.80;;;3.50;99.90;;;;;;5031958;28;20162;-86
2021/11/22 06:06:47;;;;;;;24.23;14.93;;;3.50;99.90;;;;;;5032898;28;20029;-83
2021/11/22 06:09:13;;;;;;;25.52;16.02;;;3.50;99.90;;;;;;5033522;28;20060;-83
2021/11/22 06:11:39;;;;;;;23.40;15.35;;;3.50;99.90;;;;;;5031426;28;20452;-84
2021/11/22 06:14:05;;;;;;;24.13;13.80;;;3.60;99.90;;;;;;5032482;28;20066;-83
2021/11/22 06:16:32;;;;;;;22.67;13.02;;;3.70;99.90;;;;;;5030229;28;20029;-84
2021/11/22 06:18:57;;;;;;;20.95;12.55;;;3.70;99.90;;;;;;5029827;28;20037;-84
2021/11/22 06:21:23;;;;;;;19.17;12.40;;;3.80;99.90;;;;;;5031196;28;20434;-83
2021/11/22 06:23:51;;;;;;;21.08;13.20;;;3.80;99.90;;;;;;5030784;28;20037;-85
2021/11/22 06:26:17;;;;;;;23.00;13.68;;;3.90;99.90;;;;;;5031071;28;20018;-82
2021/11/22 06:28:43;;;;;;;25.30;15.02;;;4.00;99.90;;;;;;5030695;28;20049;-84
2021/11/22 06:31:09;;;;;;;23.67;14.05;;;4.20;99.90;;;;;;5031210;28;20067;-82
2021/11/22 06:33:35;;;;;;;20.80;13.27;;;4.40;99.90;;;;;;5030430;28;20022;-85
2021/11/22 06:36:01;;;;;;;22.80;15.30;;;4.80;99.90;;;;;;5031041;28;20124;-85
2021/11/22 06:38:27;;;;;;;22.08;15.13;;;5.00;99.90;;;;;;5031904;28;20491;-90
2021/11/22 06:40:53;;;;;;;22.92;15.13;;;5.10;99.90;;;;;;5033586;28;20030;-90
2021/11/22 06:43:19;;;;;;;19.63;13.27;;;5.20;99.90;;;;;;5031214;28;20064;-88
2021/11/22 06:45:45;;;;;;;20.33;14.07;;;5.40;99.90;;;;;;5030818;28;20111;-87
2021/11/22 06:48:11;;;;;;;19.23;12.93;;;5.60;99.90;;;;;;5028760;28;20064;-87
2021/11/22 06:50:37;;;;;;;17.83;11.82;;;6.00;99.90;;;;;;5030069;28;20049;-84
2021/11/22 06:53:03;;;;;;;18.00;11.95;;;6.40;99.90;;;;;;5028600;28;20144;-84
2021/11/22 06:55:29;;;;;;;16.42;11.88;;;6.80;99.90;;;;;;5028554;28;20388;-88
2021/11/22 06:57:55;;;;;;;15.50;10.63;;;7.20;99.90;;;;;;5030703;28;20098;-85
2021/11/22 07:00:21;;;;;;;15.27;10.38;;;7.50;99.60;;;;;;5029958;28;20029;-85
2021/11/22 07:02:51;;;;;;;16.35;11.07;;;7.70;96.70;;;;;;5030407;28;20574;-87
2021/11/22 07:05:21;;;;;;;15.77;10.43;;;7.70;94.30;;;;;;5030384;28;20034;-87
2021/11/22 07:07:48;;;;;;;15.40;9.82;;;7.70;93.60;;;;;;5028137;28;20032;-85
2021/11/22 07:10:14;;;;;;;14.45;9.65;;;7.50;93.00;;;;;;5027052;28;20037;-85
2021/11/22 07:12:44;;;;;;;14.57;9.52;;;7.50;93.40;;;;;;5029718;28;20491;-88
2021/11/22 07:15:10;;;;;;;13.80;9.63;;;7.50;93.40;;;;;;5028326;28;20037;-84
2021/11/22 07:17:36;;;;;;;15.85;10.10;;;7.60;92.90;;;;;;5027874;28;20083;-85
2021/11/22 07:20:05;;;;;;;14.05;9.52;;;7.50;92.00;;;;;;5029879;28;20033;-86
2021/11/22 07:22:30;;;;;;;15.52;10.05;;;7.50;91.90;;;;;;5029502;28;20026;-85
2021/11/22 07:24:56;;;;;;;14.40;9.65;;;7.50;91.70;;;;;;5029039;28;20026;-84
2021/11/22 07:27:26;;;;;;;15.43;10.40;;;7.50;91.40;;;;;;5030012;28;20041;-84
2021/11/22 07:29:54;;;;;;;19.42;11.95;;;7.40;91.30;;;;;;5031087;28;20044;-90
2021/11/22 07:32:22;;;;;;;17.77;10.65;;;7.40;91.00;;;;;;5030972;28;20033;-83
2021/11/22 07:34:48;;;;;;;19.48;12.38;;;7.40;91.30;;;;;;5029799;28;20021;-83
2021/11/22 07:37:14;;;;;;;18.50;11.40;;;7.30;91.10;;;;;;5030517;28;20041;-89
2021/11/22 07:39:45;;;;;;;16.15;10.85;;;7.30;91.20;;;;;;5029760;28;20028;-86
2021/11/22 07:42:11;;;;;;;17.00;11.07;;;7.30;91.20;;;;;;5029095;28;20028;-84
2021/11/22 07:44:37;;;;;;;17.98;10.63;;;7.30;91.10;;;;;;5028486;28;20049;-86
2021/11/22 07:47:04;;;;;;;16.85;10.45;;;7.30;91.10;;;;;;5029489;28;20498;-82
2021/11/22 07:49:31;;;;;;;14.75;9.20;;;7.40;90.90;;;;;;5028946;28;20032;-82
2021/11/22 07:51:57;;;;;;;14.73;9.15;;;7.40;90.90;;;;;;5028328;28;20475;-82
2021/11/22 07:54:23;;;;;;;13.57;8.60;;;7.30;90.80;;;;;;5028243;28;20021;-83
2021/11/22 07:56:49;;;;;;;17.63;10.23;;;7.30;90.90;;;;;;5028223;28;20037;-82
2021/11/22 07:59:16;;;;;;;15.68;10.45;;;7.30;91.00;;;;;;5029597;28;20100;-85
2021/11/22 08:01:42;;;;;;;20.80;11.45;;;7.30;90.80;;;;;;5028707;28;20388;-85
2021/11/22 08:04:13;;;;;;;21.70;14.25;;;7.30;90.80;;;;;;5030117;28;20701;-84
2021/11/22 08:06:46;;;;;;;21.13;13.50;;;7.30;90.70;;;;;;5030119;28;20029;-85
2021/11/22 08:09:16;;;;;;;18.13;11.75;;;7.20;90.80;;;;;;5029104;28;20118;-84
2021/11/22 08:12:25;;;;;;;16.80;10.88;;;7.20;91.10;;;;;;5029158;28;20048;-85
2021/11/22 08:14:34;;;;;;;15.80;10.18;;;7.20;91.30;;;;;;5028548;28;20040;-84
2021/11/22 08:17:00;;;;;;;16.95;10.20;;;7.20;91.60;;;;;;5030406;28;20033;-84
2021/11/22 08:19:25;;;;;;;19.67;11.07;;;7.30;91.70;;;;;;5036126;28;20036;-83
2021/11/22 08:21:51;;;;;;;18.13;11.07;;;7.40;91.50;;;;;;5046984;28;20064;-85
2021/11/22 08:24:17;;;;;;;16.98;10.68;;;7.40;91.50;;;;;;5055731;28;20005;-89
2021/11/22 08:26:43;;;;;;;15.65;9.82;;;7.50;91.50;;;;;;5056168;28;20029;-84
2021/11/22 08:29:09;;;;;;;16.35;10.45;;;7.50;91.60;;;;;;5055735;28;20016;-86
2021/11/22 08:31:35;;;;;;;17.60;10.57;;;7.60;91.70;;;;;;5054699;28;20010;-90
2021/11/22 08:34:01;;;;;;;17.00;10.95;;;7.70;91.80;;;;;;5053103;28;20087;-86
2021/11/22 08:36:26;;;;;;;18.85;12.00;;;7.70;91.70;;;;;;5049348;28;20030;-85
2021/11/22 08:38:53;;;;;;;18.08;11.13;;;7.80;91.60;;;;;;5050131;28;20041;-88
2021/11/22 08:41:19;;;;;;;18.83;11.43;;;7.90;91.70;;;;;;5048697;28;20273;-86
2021/11/22 08:43:46;;;;;;;16.17;10.27;;;8.00;91.60;;;;;;5034235;28;20025;-83
2021/11/22 08:46:11;;;;;;;15.73;10.55;;;8.10;91.50;;;;;;5029502;28;20026;-87
2021/11/22 08:48:37;;;;;;;15.77;10.38;;;8.20;91.50;;;;;;5030302;28;20026;-85
2021/11/22 08:51:04;;;;;;;14.93;9.43;;;8.30;91.20;;;;;;5029554;28;20529;-83
2021/11/22 08:53:31;;;;;;;16.65;10.10;;;8.40;91.00;;;;;;5028314;28;20079;-86
2021/11/22 08:55:57;;;;;;;13.20;8.10;;;8.50;90.70;;;;;;5029061;28;20434;-85
2021/11/22 08:58:23;;;;;;;13.52;8.80;;;8.60;90.60;;;;;;5028777;28;20026;-85
2021/11/22 09:00:50;;;;;;;11.00;7.35;;;8.70;90.20;;;;;;5030141;28;20025;-85
2021/11/22 09:03:16;;;;;;;10.07;7.13;;;8.70;90.00;;;;;;5031730;28;20017;-86
2021/11/22 09:05:42;;;;;;;11.60;7.55;;;8.80;89.70;;;;;;5028764;28;20025;-86
2021/11/22 09:08:09;;;;;;;11.38;7.00;;;8.90;89.40;;;;;;5031488;28;20021;-90
2021/11/22 09:10:34;;;;;;;10.60;7.20;;;8.90;88.90;;;;;;5033391;28;20099;-85
2021/11/22 09:13:00;;;;;;;9.90;6.80;;;9.00;88.80;;;;;;5034915;28;20025;-84
2021/11/22 09:15:26;;;;;;;14.20;7.72;;;9.10;88.50;;;;;;5032511;28;20038;-87
2021/11/22 09:17:52;;;;;;;11.68;7.40;;;9.10;88.20;;;;;;5028998;28;20026;-88
2021/11/22 09:20:19;;;;;;;10.80;6.82;;;9.20;88.30;;;;;;5028182;28;20518;-85
2021/11/22 09:22:44;;;;;;;11.35;7.80;;;9.30;88.00;;;;;;5029206;28;20029;-88
2021/11/22 09:25:11;;;;;;;14.18;9.07;;;9.30;86.20;;;;;;5031178;28;20514;-85
2021/11/22 09:27:37;;;;;;;11.40;7.85;;;9.30;84.80;;;;;;5030839;28;20018;-86
2021/11/22 09:30:04;;;;;;;11.40;7.22;;;9.30;85.10;;;;;;5031071;28;20032;-87
2021/11/22 09:32:30;;;;;;;10.13;6.57;;;9.30;85.40;;;;;;5028943;28;20047;-86
2021/11/22 09:34:56;;;;;;;11.48;7.35;;;9.40;85.30;;;;;;5032710;28;20536;-85
2021/11/22 09:37:22;;;;;;;13.15;7.70;;;9.40;84.70;;;;;;5033499;28;20071;-87
2021/11/22 09:39:48;;;;;;;12.48;7.43;;;9.40;84.50;;;;;;5034094;28;20030;-85
2021/11/22 09:42:14;;;;;;;13.48;8.45;;;9.40;84.70;;;;;;5034411;28;20498;-85
2021/11/22 09:44:41;;;;;;;13.05;8.20;;;9.40;84.10;;;;;;5033674;28;20045;-88
2021/11/22 09:47:07;;;;;;;12.40;8.35;;;9.50;83.90;;;;;;5034394;28;20026;-85
2021/11/22 09:49:32;;;;;;;11.32;7.22;;;9.50;85.20;;;;;;5033527;28;20017;-83
2021/11/22 09:51:59;;;;;;;10.52;7.45;;;10.10;90.10;;;;;;5034173;28;20484;-86
2021/11/22 09:54:24;;;;;;;9.98;7.22;;;11.00;88.50;;;;;;5032821;28;20043;-85
2021/11/22 09:56:52;;;;;;;12.55;7.82;;;11.90;85.30;;;;;;5032416;28;20128;-84
2021/11/22 09:59:18;;;;;;;10.10;7.13;;;12.80;81.60;;;;;;5033780;28;20026;-85
2021/11/22 10:01:44;;;;;;;10.02;6.85;;;13.50;77.70;;;;;;5032645;28;20057;-84
2021/11/22 10:04:14;;;;;;;8.20;5.65;;;14.10;76.30;;;;;;5032922;28;20029;-85
2021/11/22 10:07:01;;;;;;;7.07;5.05;;;14.70;73.90;;;;;;5031894;28;20497;-87
2021/11/22 10:09:33;;;;;;;8.13;5.30;;;15.30;64.90;;;;;;5032005;28;20029;-86
2021/11/22 10:12:01;;;;;;;10.90;6.50;;;15.80;70.00;;;;;;5031048;28;20125;-85
2021/11/22 10:14:28;;;;;;;8.05;5.70;;;16.20;64.90;;;;;;5033115;28;20021;-88
2021/11/22 10:16:54;;;;;;;6.47;4.68;;;16.10;62.90;;;;;;5032317;28;20061;-88
2021/11/22 10:19:21;;;;;;;10.10;6.57;;;16.20;63.60;;;;;;5033366;28;20028;-86
2021/11/22 10:21:48;;;;;;;8.80;5.95;;;16.60;63.50;;;;;;5032127;28;20120;-88
2021/11/22 10:24:14;;;;;;;10.70;7.68;;;17.20;63.80;;;;;;5034189;28;20025;-85
2021/11/22 10:26:43;;;;;;;9.80;6.38;;;17.60;61.90;;;;;;5033554;28;20037;-85
2021/11/22 10:29:11;;;;;;;7.43;5.60;;;18.00;60.40;;;;;;5033969;28;20022;-85
2021/11/22 10:31:38;;;;;;;6.72;4.50;;;17.90;58.10;;;;;;5034836;28;20380;-87
2021/11/22 10:34:04;;;;;;;6.78;4.25;;;17.70;57.80;;;;;;5035598;28;20591;-86
2021/11/22 10:36:36;;;;;;;6.63;4.93;;;17.20;57.90;;;;;;5033439;28;20037;-86
2021/11/22 10:39:04;;;;;;;6.82;4.50;;;16.50;57.20;;;;;;5032607;28;20032;-87
2021/11/22 10:41:35;;;;;;;7.07;4.80;;;15.70;57.60;;;;;;5031961;28;20035;-85
2021/11/22 10:44:05;;;;;;;6.80;4.80;;;15.00;58.40;;;;;;5030727;28;20049;-86
2021/11/22 10:49:39;;;;;;;6.85;3.90;;;14.30;61.20;;;;;;5032255;28;20111;-84
2021/11/22 10:52:29;;;;;;;4.70;3.40;;;14.70;61.50;;;;;;5031235;28;20427;-88
2021/11/22 10:54:58;;;;;;;4.28;3.30;;;15.60;57.20;;;;;;5032138;28;20057;-84
2021/11/22 10:57:41;;;;;;;5.30;3.78;;;16.10;59.60;;;;;;5032169;28;20094;-85
2021/11/22 11:00:23;;;;;;;5.55;3.75;;;16.50;54.70;;;;;;5041542;28;20873;-85
2021/11/22 11:02:50;;;;;;;4.68;3.50;;;16.20;53.70;;;;;;5033141;28;20515;-84
2021/11/22 11:05:34;;;;;;;4.53;3.40;;;15.60;56.20;;;;;;5031415;28;20061;-85
2021/11/22 11:08:05;;;;;;;5.18;3.22;;;15.30;55.90;;;;;;5031345;28;20112;-84
2021/11/22 11:10:33;;;;;;;4.78;3.25;;;14.80;57.90;;;;;;5030639;28;20046;-85
2021/11/22 11:13:00;;;;;;;5.43;3.50;;;14.40;58.50;;;;;;5031475;28;20036;-86
2021/11/22 11:15:27;;;;;;;7.13;4.32;;;14.00;58.70;;;;;;5033680;28;20037;-86
2021/11/22 11:17:53;;;;;;;7.75;4.60;;;13.50;59.10;;;;;;5030497;28;20033;-84
2021/11/22 11:20:21;;;;;;;7.93;4.47;;;13.00;59.60;;;;;;5031133;28;20028;-86
2021/11/22 11:22:48;;;;;;;6.35;3.70;;;12.50;60.30;;;;;;5031055;28;20360;-85
2021/11/22 11:25:15;;;;;;;5.57;3.67;;;12.20;61.20;;;;;;5032243;28;20084;-85
2021/11/22 11:27:43;;;;;;;4.93;3.13;;;12.00;61.70;;;;;;5030798;28;20032;-87
2021/11/22 11:30:12;;;;;;;4.72;2.95;;;11.90;62.10;;;;;;5032154;28;20067;-86
2021/11/22 11:32:39;;;;;;;4.18;2.80;;;11.80;63.50;;;;;;5032653;28;20041;-85
2021/11/22 11:35:17;;;;;;;5.22;3.42;;;12.10;63.50;;;;;;5030280;28;20021;-85
2021/11/22 11:38:14;;;;;;;5.10;3.10;;;12.20;63.30;;;;;;5030448;28;20428;-85
2021/11/22 11:41:07;;;;;;;5.40;3.72;;;12.70;63.40;;;;;;5029802;28;20025;-89
2021/11/22 11:43:52;;;;;;;5.43;3.40;;;13.70;60.50;;;;;;5029657;28;20033;-85
2021/11/22 11:46:20;;;;;;;4.28;3.20;;;14.30;58.40;;;;;;5030235;28;20107;-87
2021/11/22 11:48:57;;;;;;;5.13;3.33;;;14.60;60.00;;;;;;5029711;28;20738;-84
2021/11/22 11:51:30;;;;;;;4.90;3.20;;;15.10;59.50;;;;;;5029418;28;20045;-86
2021/11/22 11:54:05;;;;;;;4.65;2.60;;;15.80;57.20;;;;;;5031562;28;20025;-86
2021/11/22 11:56:38;;;;;;;4.13;2.70;;;16.20;57.80;;;;;;5031020;28;20041;-84
2021/11/22 11:59:24;;;;;;;4.70;3.00;;;16.50;56.20;;;;;;5029805;28;20033;-85
2021/11/22 12:02:04;;;;;;;5.22;3.10;;;16.50;52.00;;;;;;5030784;28;20032;-84
2021/11/22 12:04:52;;;;;;;4.33;2.83;;;16.00;53.00;;;;;;5030734;28;20025;-86
2021/11/22 12:07:30;;;;;;;3.90;2.60;;;15.90;52.60;;;;;;5029546;28;20356;-84
2021/11/22 12:10:19;;;;;;;3.22;2.25;;;16.20;53.30;;;;;;5031294;28;20034;-85
2021/11/22 12:12:57;;;;;;;3.60;2.45;;;16.50;51.70;;;;;;5029103;28;20034;-85
2021/11/22 12:15:26;;;;;;;3.47;2.45;;;16.40;53.60;;;;;;5028466;28;20098;-85
2021/11/22 12:18:03;;;;;;;4.35;2.28;;;16.10;53.30;;;;;;5027439;28;20121;-84
2021/11/22 12:20:36;;;;;;;3.00;1.98;;;15.60;53.70;;;;;;5030447;28;20057;-86
2021/11/22 12:23:05;;;;;;;3.30;2.30;;;15.00;54.40;;;;;;5029678;28;20403;-84
2021/11/22 12:25:44;;;;;;;3.30;2.13;;;14.20;55.50;;;;;;5030207;28;20049;-85
2021/11/22 12:28:18;;;;;;;3.17;2.28;;;13.60;56.90;;;;;;5028623;28;20021;-87
2021/11/22 12:31:03;;;;;;;6.95;2.60;;;13.00;58.10;;;;;;5028588;28;20499;-88
2021/11/22 12:33:32;;;;;;;3.80;2.88;;;12.50;59.20;;;;;;5027671;28;20144;-84
2021/11/22 12:36:25;;;;;;;6.28;3.70;;;12.00;60.30;;;;;;5029039;28;20049;-86
2021/11/22 12:38:52;;;;;;;8.70;4.90;;;11.70;61.50;;;;;;5024507;28;20031;-83
2021/11/22 12:41:26;;;;;;;7.88;4.22;;;11.20;62.50;;;;;;5029521;28;20022;-84
2021/11/22 12:44:00;;;;;;;6.22;3.70;;;11.00;63.60;;;;;;5011524;28;20392;-87
2021/11/22 12:46:34;;;;;;;6.00;3.70;;;10.70;63.90;;;;;;5027900;28;20021;-83
2021/11/22 12:49:01;;;;;;;4.82;3.13;;;10.50;65.10;;;;;;5027819;28;20041;-83
2021/11/22 12:51:42;;;;;;;4.10;2.72;;;10.40;64.90;;;;;;5027039;28;20593;-80